sensor_id;sensor_type;location;lat;lon;timestamp;P1;durP1;ratioP1;P2;durP2;ratioP2
54679;SDS011;40578;53.178;5.846;2024-03-23T00:55:51;25.92;;;6.10;;
54679;SDS011;40578;53.178;5.846;2024-03-23T00:58:16;23.77;;;6.27;;
54679;SDS011;40578;53.178;5.846;2024-03-23T01:00:42;29.63;;;6.50;;
54679;SDS011;40578;53.178;5.846;2024-03-23T01:03:08;24.67;;;6.73;;
54679;SDS011;40578;53.178;5.846;2024-03-23T01:05:33;26.00;;;5.60;;
54679;SDS011;40578;53.178;5.846;2024-03-23T01:07:59;26.67;;;6.30;;
54679;SDS011;40578;53.178;5.846;2024-03-23T01:10:24;21.93;;;5.73;;
54679;SDS011;40578;53.178;5.846;2024-03-23T01:12:50;21.67;;;5.90;;
54679;SDS011;40578;53.178;5.846;2024-03-23T01:15:15;28.40;;;5.50;;
54679;SDS011;40578;53.178;5.846;2024-03-23T01:17:41;21.17;;;5.27;;
54679;SDS011;40578;53.178;5.846;2024-03-23T01:20:07;22.27;;;5.73;;
54679;SDS011;40578;53.178;5.846;2024-03-23T01:22:32;18.63;;;5.37;;
54679;SDS011;40578;53.178;5.846;2024-03-23T01:24:58;20.57;;;4.80;;
54679;SDS011;40578;53.178;5.846;2024-03-23T01:27:24;16.33;;;4.47;;
54679;SDS011;40578;53.178;5.846;2024-03-23T01:29:50;17.48;;;5.18;;
54679;SDS011;40578;53.178;5.846;2024-03-23T01:32:17;25.60;;;6.10;;
54679;SDS011;40578;53.178;5.846;2024-03-23T01:34:43;17.92;;;4.60;;
54679;SDS011;40578;53.178;5.846;2024-03-23T01:37:09;21.10;;;4.27;;
54679;SDS011;40578;53.178;5.846;2024-03-23T01:39:35;22.57;;;5.10;;
54679;SDS011;40578;53.178;5.846;2024-03-23T01:42:00;15.10;;;5.07;;
54679;SDS011;40578;53.178;5.846;2024-03-23T01:44:26;17.23;;;4.07;;
54679;SDS011;40578;53.178;5.846;2024-03-23T01:46:51;22.03;;;4.50;;
54679;SDS011;40578;53.178;5.846;2024-03-23T01:49:17;18.10;;;5.00;;
54679;SDS011;40578;53.178;5.846;2024-03-23T01:51:43;18.43;;;4.50;;
54679;SDS011;40578;53.178;5.846;2024-03-23T01:54:09;14.45;;;3.72;;
54679;SDS011;40578;53.178;5.846;2024-03-23T01:56:35;19.97;;;4.07;;
54679;SDS011;40578;53.178;5.846;2024-03-23T01:59:01;15.30;;;4.23;;
54679;SDS011;40578;53.178;5.846;2024-03-23T02:01:31;20.30;;;4.07;;
54679;SDS011;40578;53.178;5.846;2024-03-23T02:03:57;19.35;;;4.38;;
54679;SDS011;40578;53.178;5.846;2024-03-23T02:06:26;17.17;;;4.35;;
54679;SDS011;40578;53.178;5.846;2024-03-23T02:08:52;20.35;;;4.25;;
54679;SDS011;40578;53.178;5.846;2024-03-23T02:11:21;14.00;;;4.07;;
54679;SDS011;40578;53.178;5.846;2024-03-23T02:13:47;15.70;;;4.20;;
54679;SDS011;40578;53.178;5.846;2024-03-23T02:16:12;18.77;;;4.43;;
54679;SDS011;40578;53.178;5.846;2024-03-23T02:18:38;15.37;;;3.73;;
54679;SDS011;40578;53.178;5.846;2024-03-23T02:21:04;16.50;;;3.50;;
54679;SDS011;40578;53.178;5.846;2024-03-23T02:23:29;13.27;;;4.10;;
54679;SDS011;40578;53.178;5.846;2024-03-23T02:25:55;16.17;;;3.80;;
54679;SDS011;40578;53.178;5.846;2024-03-23T02:28:21;13.33;;;3.73;;
54679;SDS011;40578;53.178;5.846;2024-03-23T02:30:48;19.92;;;3.60;;
54679;SDS011;40578;53.178;5.846;2024-03-23T02:33:14;18.70;;;4.13;;
54679;SDS011;40578;53.178;5.846;2024-03-23T02:35:39;13.37;;;4.67;;
54679;SDS011;40578;53.178;5.846;2024-03-23T02:38:05;17.00;;;4.13;;
54679;SDS011;40578;53.178;5.846;2024-03-23T02:40:31;15.40;;;3.80;;
54679;SDS011;40578;53.178;5.846;2024-03-23T02:42:56;12.93;;;3.97;;
54679;SDS011;40578;53.178;5.846;2024-03-23T02:45:22;15.10;;;3.63;;
54679;SDS011;40578;53.178;5.846;2024-03-23T02:47:47;22.60;;;4.63;;
54679;SDS011;40578;53.178;5.846;2024-03-23T02:50:17;15.40;;;3.80;;
54679;SDS011;40578;53.178;5.846;2024-03-23T02:52:46;17.55;;;3.55;;
54679;SDS011;40578;53.178;5.846;2024-03-23T02:55:12;15.43;;;3.67;;
54679;SDS011;40578;53.178;5.846;2024-03-23T02:57:38;15.37;;;3.93;;
54679;SDS011;40578;53.178;5.846;2024-03-23T03:00:04;18.50;;;3.77;;
54679;SDS011;40578;53.178;5.846;2024-03-23T03:02:31;14.05;;;4.32;;
54679;SDS011;40578;53.178;5.846;2024-03-23T03:04:57;15.87;;;3.60;;
54679;SDS011;40578;53.178;5.846;2024-03-23T03:07:22;17.07;;;3.70;;
54679;SDS011;40578;53.178;5.846;2024-03-23T03:09:48;17.37;;;3.47;;
54679;SDS011;40578;53.178;5.846;2024-03-23T03:12:14;20.00;;;3.60;;
54679;SDS011;40578;53.178;5.846;2024-03-23T03:14:39;20.67;;;4.90;;
54679;SDS011;40578;53.178;5.846;2024-03-23T03:17:05;15.03;;;3.83;;
54679;SDS011;40578;53.178;5.846;2024-03-23T03:19:30;19.80;;;5.00;;
54679;SDS011;40578;53.178;5.846;2024-03-23T03:21:57;17.83;;;3.67;;
54679;SDS011;40578;53.178;5.846;2024-03-23T03:24:23;14.90;;;4.00;;
54679;SDS011;40578;53.178;5.846;2024-03-23T03:26:48;13.77;;;3.20;;
54679;SDS011;40578;53.178;5.846;2024-03-23T03:29:15;14.45;;;3.97;;
54679;SDS011;40578;53.178;5.846;2024-03-23T03:31:40;14.15;;;3.70;;
54679;SDS011;40578;53.178;5.846;2024-03-23T03:34:06;20.67;;;3.90;;
54679;SDS011;40578;53.178;5.846;2024-03-23T03:36:32;17.60;;;3.53;;
54679;SDS011;40578;53.178;5.846;2024-03-23T03:38:58;17.53;;;4.23;;
54679;SDS011;40578;53.178;5.846;2024-03-23T03:41:23;18.90;;;3.50;;
54679;SDS011;40578;53.178;5.846;2024-03-23T03:43:49;15.27;;;3.50;;
54679;SDS011;40578;53.178;5.846;2024-03-23T03:46:14;20.90;;;4.37;;
54679;SDS011;40578;53.178;5.846;2024-03-23T03:48:40;22.13;;;3.97;;
54679;SDS011;40578;53.178;5.846;2024-03-23T03:51:06;14.00;;;4.13;;
54679;SDS011;40578;53.178;5.846;2024-03-23T03:53:31;18.57;;;3.90;;
54679;SDS011;40578;53.178;5.846;2024-03-23T03:56:00;19.23;;;4.07;;
54679;SDS011;40578;53.178;5.846;2024-03-23T03:58:27;20.20;;;3.35;;
54679;SDS011;40578;53.178;5.846;2024-03-23T04:00:52;14.33;;;3.33;;
54679;SDS011;40578;53.178;5.846;2024-03-23T04:03:18;18.90;;;3.10;;
54679;SDS011;40578;53.178;5.846;2024-03-23T04:05:49;11.63;;;3.63;;
54679;SDS011;40578;53.178;5.846;2024-03-23T04:08:19;22.88;;;4.03;;
54679;SDS011;40578;53.178;5.846;2024-03-23T04:10:44;14.30;;;3.17;;
54679;SDS011;40578;53.178;5.846;2024-03-23T04:13:11;14.23;;;3.60;;
54679;SDS011;40578;53.178;5.846;2024-03-23T04:15:37;17.25;;;3.67;;
54679;SDS011;40578;53.178;5.846;2024-03-23T04:18:02;24.27;;;4.20;;
54679;SDS011;40578;53.178;5.846;2024-03-23T04:20:28;15.97;;;3.17;;
54679;SDS011;40578;53.178;5.846;2024-03-23T04:22:53;14.50;;;3.00;;
54679;SDS011;40578;53.178;5.846;2024-03-23T04:25:19;17.20;;;3.53;;
54679;SDS011;40578;53.178;5.846;2024-03-23T04:27:45;25.13;;;3.67;;
54679;SDS011;40578;53.178;5.846;2024-03-23T04:30:11;16.30;;;3.67;;
54679;SDS011;40578;53.178;5.846;2024-03-23T04:32:37;23.10;;;3.80;;
54679;SDS011;40578;53.178;5.846;2024-03-23T04:35:03;17.93;;;3.57;;
54679;SDS011;40578;53.178;5.846;2024-03-23T04:37:34;15.27;;;3.40;;
54679;SDS011;40578;53.178;5.846;2024-03-23T04:40:01;15.20;;;3.38;;
54679;SDS011;40578;53.178;5.846;2024-03-23T04:42:27;15.60;;;3.90;;
54679;SDS011;40578;53.178;5.846;2024-03-23T04:44:53;15.90;;;3.40;;
54679;SDS011;40578;53.178;5.846;2024-03-23T04:47:18;19.43;;;2.90;;
54679;SDS011;40578;53.178;5.846;2024-03-23T04:49:44;10.90;;;2.70;;
54679;SDS011;40578;53.178;5.846;2024-03-23T04:52:09;18.27;;;3.20;;
54679;SDS011;40578;53.178;5.846;2024-03-23T04:54:35;16.87;;;3.27;;
54679;SDS011;40578;53.178;5.846;2024-03-23T04:57:00;13.27;;;2.70;;
54679;SDS011;40578;53.178;5.846;2024-03-23T04:59:26;13.20;;;3.03;;
54679;SDS011;40578;53.178;5.846;2024-03-23T05:01:52;14.63;;;2.83;;
54679;SDS011;40578;53.178;5.846;2024-03-23T05:04:17;16.50;;;3.00;;
54679;SDS011;40578;53.178;5.846;2024-03-23T05:06:43;14.67;;;2.60;;
54679;SDS011;40578;53.178;5.846;2024-03-23T05:09:08;12.10;;;2.80;;
54679;SDS011;40578;53.178;5.846;2024-03-23T05:11:40;14.63;;;3.70;;
54679;SDS011;40578;53.178;5.846;2024-03-23T05:14:10;13.25;;;3.40;;
54679;SDS011;40578;53.178;5.846;2024-03-23T05:16:39;19.90;;;3.40;;
54679;SDS011;40578;53.178;5.846;2024-03-23T05:19:05;20.42;;;3.78;;
54679;SDS011;40578;53.178;5.846;2024-03-23T05:21:31;14.20;;;3.73;;
54679;SDS011;40578;53.178;5.846;2024-03-23T05:23:56;12.73;;;3.50;;
54679;SDS011;40578;53.178;5.846;2024-03-23T05:26:22;15.50;;;3.67;;
54679;SDS011;40578;53.178;5.846;2024-03-23T05:28:48;10.53;;;3.17;;
54679;SDS011;40578;53.178;5.846;2024-03-23T05:31:26;18.90;;;3.53;;
54679;SDS011;40578;53.178;5.846;2024-03-23T05:33:53;16.67;;;3.88;;
54679;SDS011;40578;53.178;5.846;2024-03-23T05:36:19;11.52;;;3.95;;
54679;SDS011;40578;53.178;5.846;2024-03-23T05:38:45;15.53;;;3.90;;
54679;SDS011;40578;53.178;5.846;2024-03-23T05:41:11;10.50;;;3.58;;
54679;SDS011;40578;53.178;5.846;2024-03-23T05:43:37;20.65;;;4.30;;
54679;SDS011;40578;53.178;5.846;2024-03-23T05:46:03;21.57;;;4.40;;
54679;SDS011;40578;53.178;5.846;2024-03-23T05:48:33;16.08;;;3.90;;
54679;SDS011;40578;53.178;5.846;2024-03-23T05:50:59;13.43;;;3.80;;
54679;SDS011;40578;53.178;5.846;2024-03-23T05:53:25;16.70;;;3.95;;
54679;SDS011;40578;53.178;5.846;2024-03-23T05:55:51;16.13;;;3.97;;
54679;SDS011;40578;53.178;5.846;2024-03-23T05:58:24;20.20;;;3.70;;
54679;SDS011;40578;53.178;5.846;2024-03-23T06:00:56;18.80;;;4.07;;
54679;SDS011;40578;53.178;5.846;2024-03-23T06:03:26;13.57;;;4.00;;
54679;SDS011;40578;53.178;5.846;2024-03-23T06:05:52;19.23;;;4.57;;
54679;SDS011;40578;53.178;5.846;2024-03-23T06:08:21;19.52;;;4.60;;
54679;SDS011;40578;53.178;5.846;2024-03-23T06:10:47;22.65;;;4.72;;
54679;SDS011;40578;53.178;5.846;2024-03-23T06:13:13;20.52;;;4.57;;
54679;SDS011;40578;53.178;5.846;2024-03-23T06:15:39;13.52;;;4.60;;
54679;SDS011;40578;53.178;5.846;2024-03-23T06:18:05;12.93;;;4.30;;
54679;SDS011;40578;53.178;5.846;2024-03-23T06:20:32;15.20;;;4.15;;
54679;SDS011;40578;53.178;5.846;2024-03-23T06:22:59;13.80;;;3.15;;
54679;SDS011;40578;53.178;5.846;2024-03-23T06:27:51;8.85;;;2.10;;
54679;SDS011;40578;53.178;5.846;2024-03-23T06:30:17;7.73;;;2.10;;
54679;SDS011;40578;53.178;5.846;2024-03-23T06:32:42;9.27;;;2.03;;
54679;SDS011;40578;53.178;5.846;2024-03-23T06:35:08;4.13;;;1.90;;
54679;SDS011;40578;53.178;5.846;2024-03-23T06:37:35;8.85;;;1.90;;
54679;SDS011;40578;53.178;5.846;2024-03-23T06:40:01;6.65;;;2.13;;
54679;SDS011;40578;53.178;5.846;2024-03-23T06:42:26;9.10;;;2.43;;
54679;SDS011;40578;53.178;5.846;2024-03-23T06:44:52;7.97;;;2.37;;
54679;SDS011;40578;53.178;5.846;2024-03-23T06:47:17;8.10;;;2.53;;
54679;SDS011;40578;53.178;5.846;2024-03-23T06:49:43;12.57;;;2.87;;
54679;SDS011;40578;53.178;5.846;2024-03-23T06:52:08;12.80;;;2.97;;
54679;SDS011;40578;53.178;5.846;2024-03-23T06:54:34;9.47;;;2.87;;
54679;SDS011;40578;53.178;5.846;2024-03-23T06:57:00;10.60;;;2.77;;
54679;SDS011;40578;53.178;5.846;2024-03-23T06:59:25;10.47;;;2.60;;
54679;SDS011;40578;53.178;5.846;2024-03-23T07:01:51;16.17;;;2.97;;
54679;SDS011;40578;53.178;5.846;2024-03-23T07:04:16;11.17;;;3.87;;
54679;SDS011;40578;53.178;5.846;2024-03-23T07:06:43;10.60;;;3.97;;
54679;SDS011;40578;53.178;5.846;2024-03-23T07:09:09;11.45;;;3.30;;
54679;SDS011;40578;53.178;5.846;2024-03-23T07:11:35;13.13;;;3.37;;
54679;SDS011;40578;53.178;5.846;2024-03-23T07:14:00;11.70;;;3.33;;
54679;SDS011;40578;53.178;5.846;2024-03-23T07:16:27;13.25;;;3.33;;
54679;SDS011;40578;53.178;5.846;2024-03-23T07:18:53;13.98;;;3.50;;
54679;SDS011;40578;53.178;5.846;2024-03-23T07:21:19;15.10;;;3.67;;
54679;SDS011;40578;53.178;5.846;2024-03-23T07:23:44;11.37;;;2.90;;
54679;SDS011;40578;53.178;5.846;2024-03-23T07:26:10;13.47;;;3.50;;
54679;SDS011;40578;53.178;5.846;2024-03-23T07:28:36;12.05;;;3.30;;
54679;SDS011;40578;53.178;5.846;2024-03-23T07:33:36;14.52;;;3.33;;
54679;SDS011;40578;53.178;5.846;2024-03-23T07:36:05;16.77;;;3.75;;
54679;SDS011;40578;53.178;5.846;2024-03-23T07:38:31;11.73;;;3.87;;
54679;SDS011;40578;53.178;5.846;2024-03-23T07:43:29;12.63;;;3.35;;
54679;SDS011;40578;53.178;5.846;2024-03-23T07:45:54;16.30;;;2.73;;
54679;SDS011;40578;53.178;5.846;2024-03-23T07:48:21;14.67;;;3.17;;
54679;SDS011;40578;53.178;5.846;2024-03-23T07:50:56;11.90;;;2.85;;
54679;SDS011;40578;53.178;5.846;2024-03-23T07:53:22;15.68;;;3.63;;
54679;SDS011;40578;53.178;5.846;2024-03-23T07:56:01;11.87;;;2.83;;
54679;SDS011;40578;53.178;5.846;2024-03-23T07:58:27;12.77;;;2.85;;
54679;SDS011;40578;53.178;5.846;2024-03-23T08:00:54;18.40;;;3.37;;
54679;SDS011;40578;53.178;5.846;2024-03-23T08:03:20;9.80;;;2.30;;
54679;SDS011;40578;53.178;5.846;2024-03-23T08:05:45;12.37;;;2.80;;
54679;SDS011;40578;53.178;5.846;2024-03-23T08:08:12;8.53;;;2.03;;
54679;SDS011;40578;53.178;5.846;2024-03-23T08:10:46;8.25;;;2.17;;
54679;SDS011;40578;53.178;5.846;2024-03-23T08:13:15;9.15;;;2.00;;
54679;SDS011;40578;53.178;5.846;2024-03-23T08:15:41;8.63;;;2.25;;
54679;SDS011;40578;53.178;5.846;2024-03-23T08:18:07;11.60;;;3.00;;
54679;SDS011;40578;53.178;5.846;2024-03-23T08:20:33;14.98;;;3.17;;
54679;SDS011;40578;53.178;5.846;2024-03-23T08:22:59;15.37;;;2.80;;
54679;SDS011;40578;53.178;5.846;2024-03-23T08:25:25;14.67;;;2.67;;
54679;SDS011;40578;53.178;5.846;2024-03-23T08:27:50;14.30;;;3.03;;
54679;SDS011;40578;53.178;5.846;2024-03-23T08:30:17;11.52;;;2.78;;
54679;SDS011;40578;53.178;5.846;2024-03-23T08:32:43;15.25;;;3.33;;
54679;SDS011;40578;53.178;5.846;2024-03-23T08:35:09;14.40;;;3.20;;
54679;SDS011;40578;53.178;5.846;2024-03-23T08:37:35;11.40;;;3.00;;
54679;SDS011;40578;53.178;5.846;2024-03-23T08:40:00;14.67;;;2.90;;
54679;SDS011;40578;53.178;5.846;2024-03-23T08:42:27;13.35;;;3.13;;
54679;SDS011;40578;53.178;5.846;2024-03-23T08:44:53;16.97;;;2.67;;
54679;SDS011;40578;53.178;5.846;2024-03-23T08:47:19;7.25;;;1.73;;
54679;SDS011;40578;53.178;5.846;2024-03-23T08:49:44;6.07;;;2.20;;
54679;SDS011;40578;53.178;5.846;2024-03-23T08:52:11;9.00;;;2.03;;
54679;SDS011;40578;53.178;5.846;2024-03-23T08:57:02;11.32;;;2.50;;
54679;SDS011;40578;53.178;5.846;2024-03-23T08:59:28;6.63;;;2.60;;
54679;SDS011;40578;53.178;5.846;2024-03-23T09:01:54;9.63;;;2.23;;
54679;SDS011;40578;53.178;5.846;2024-03-23T09:04:20;7.68;;;3.13;;
54679;SDS011;40578;53.178;5.846;2024-03-23T09:06:46;7.45;;;1.42;;
54679;SDS011;40578;53.178;5.846;2024-03-23T09:09:12;7.80;;;1.90;;
54679;SDS011;40578;53.178;5.846;2024-03-23T09:11:37;7.93;;;1.70;;
54679;SDS011;40578;53.178;5.846;2024-03-23T09:14:03;7.77;;;1.63;;
54679;SDS011;40578;53.178;5.846;2024-03-23T09:16:29;7.43;;;1.70;;
54679;SDS011;40578;53.178;5.846;2024-03-23T09:18:55;11.43;;;2.20;;
54679;SDS011;40578;53.178;5.846;2024-03-23T09:21:20;9.77;;;2.53;;
54679;SDS011;40578;53.178;5.846;2024-03-23T09:23:46;14.63;;;2.80;;
54679;SDS011;40578;53.178;5.846;2024-03-23T09:26:12;12.40;;;2.97;;
54679;SDS011;40578;53.178;5.846;2024-03-23T09:28:38;19.13;;;3.43;;
54679;SDS011;40578;53.178;5.846;2024-03-23T09:31:07;13.97;;;2.97;;
54679;SDS011;40578;53.178;5.846;2024-03-23T09:33:35;16.23;;;3.20;;
54679;SDS011;40578;53.178;5.846;2024-03-23T09:36:04;11.98;;;2.83;;
54679;SDS011;40578;53.178;5.846;2024-03-23T09:38:30;14.07;;;3.67;;
54679;SDS011;40578;53.178;5.846;2024-03-23T09:40:56;10.37;;;2.57;;
54679;SDS011;40578;53.178;5.846;2024-03-23T09:43:22;12.30;;;3.22;;
54679;SDS011;40578;53.178;5.846;2024-03-23T09:45:48;11.50;;;2.75;;
54679;SDS011;40578;53.178;5.846;2024-03-23T09:48:14;5.43;;;1.63;;
54679;SDS011;40578;53.178;5.846;2024-03-23T09:50:42;5.15;;;1.33;;
54679;SDS011;40578;53.178;5.846;2024-03-23T09:53:09;5.45;;;1.25;;
54679;SDS011;40578;53.178;5.846;2024-03-23T09:55:37;5.55;;;1.50;;
54679;SDS011;40578;53.178;5.846;2024-03-23T09:58:03;8.88;;;2.00;;
54679;SDS011;40578;53.178;5.846;2024-03-23T10:00:33;9.13;;;2.25;;
54679;SDS011;40578;53.178;5.846;2024-03-23T10:03:01;10.88;;;2.90;;
54679;SDS011;40578;53.178;5.846;2024-03-23T10:05:30;11.45;;;3.00;;
54679;SDS011;40578;53.178;5.846;2024-03-23T10:10:40;15.48;;;3.17;;
54679;SDS011;40578;53.178;5.846;2024-03-23T10:13:06;10.52;;;2.53;;
54679;SDS011;40578;53.178;5.846;2024-03-23T10:15:34;13.43;;;2.77;;
54679;SDS011;40578;53.178;5.846;2024-03-23T10:18:17;9.70;;;2.15;;
54679;SDS011;40578;53.178;5.846;2024-03-23T10:20:45;8.73;;;2.13;;
54679;SDS011;40578;53.178;5.846;2024-03-23T10:23:16;13.25;;;3.30;;
54679;SDS011;40578;53.178;5.846;2024-03-23T10:25:42;14.90;;;3.00;;
54679;SDS011;40578;53.178;5.846;2024-03-23T10:28:08;12.03;;;3.23;;
54679;SDS011;40578;53.178;5.846;2024-03-23T10:30:34;8.80;;;2.55;;
54679;SDS011;40578;53.178;5.846;2024-03-23T10:35:36;11.88;;;2.75;;
54679;SDS011;40578;53.178;5.846;2024-03-23T10:38:06;12.45;;;3.00;;
54679;SDS011;40578;53.178;5.846;2024-03-23T10:40:35;9.07;;;2.47;;
54679;SDS011;40578;53.178;5.846;2024-03-23T10:43:02;9.95;;;2.75;;
54679;SDS011;40578;53.178;5.846;2024-03-23T10:45:29;9.65;;;1.98;;
54679;SDS011;40578;53.178;5.846;2024-03-23T10:47:55;9.55;;;2.10;;
54679;SDS011;40578;53.178;5.846;2024-03-23T10:50:21;14.57;;;2.77;;
54679;SDS011;40578;53.178;5.846;2024-03-23T10:52:47;13.20;;;3.17;;
54679;SDS011;40578;53.178;5.846;2024-03-23T10:55:14;10.52;;;2.40;;
54679;SDS011;40578;53.178;5.846;2024-03-23T10:57:53;9.43;;;2.33;;
54679;SDS011;40578;53.178;5.846;2024-03-23T11:00:20;11.13;;;2.33;;
54679;SDS011;40578;53.178;5.846;2024-03-23T11:02:47;9.80;;;2.22;;
54679;SDS011;40578;53.178;5.846;2024-03-23T11:07:51;10.63;;;2.53;;
54679;SDS011;40578;53.178;5.846;2024-03-23T11:10:25;14.95;;;2.92;;
54679;SDS011;40578;53.178;5.846;2024-03-23T11:12:52;7.35;;;1.92;;
54679;SDS011;40578;53.178;5.846;2024-03-23T11:15:18;6.90;;;1.83;;
54679;SDS011;40578;53.178;5.846;2024-03-23T11:18:03;8.80;;;1.60;;
54679;SDS011;40578;53.178;5.846;2024-03-23T11:20:31;8.45;;;2.25;;
54679;SDS011;40578;53.178;5.846;2024-03-23T11:25:23;12.75;;;2.58;;
54679;SDS011;40578;53.178;5.846;2024-03-23T11:27:53;11.02;;;2.45;;
54679;SDS011;40578;53.178;5.846;2024-03-23T11:30:27;9.55;;;2.40;;
54679;SDS011;40578;53.178;5.846;2024-03-23T11:32:55;13.98;;;2.90;;
54679;SDS011;40578;53.178;5.846;2024-03-23T11:35:31;9.05;;;2.38;;
54679;SDS011;40578;53.178;5.846;2024-03-23T11:40:37;8.48;;;1.95;;
54679;SDS011;40578;53.178;5.846;2024-03-23T11:43:05;7.15;;;1.98;;
54679;SDS011;40578;53.178;5.846;2024-03-23T11:45:43;7.45;;;2.15;;
54679;SDS011;40578;53.178;5.846;2024-03-23T11:48:20;11.60;;;2.25;;
54679;SDS011;40578;53.178;5.846;2024-03-23T11:50:50;9.93;;;2.33;;
54679;SDS011;40578;53.178;5.846;2024-03-23T11:53:20;8.05;;;2.40;;
54679;SDS011;40578;53.178;5.846;2024-03-23T11:55:55;9.27;;;2.38;;
54679;SDS011;40578;53.178;5.846;2024-03-23T11:58:22;12.27;;;2.17;;
54679;SDS011;40578;53.178;5.846;2024-03-23T12:00:50;14.27;;;2.92;;
54679;SDS011;40578;53.178;5.846;2024-03-23T12:03:17;11.50;;;2.42;;
54679;SDS011;40578;53.178;5.846;2024-03-23T12:05:47;7.30;;;2.10;;
54679;SDS011;40578;53.178;5.846;2024-03-23T12:08:15;11.95;;;2.70;;
54679;SDS011;40578;53.178;5.846;2024-03-23T12:10:44;8.38;;;2.00;;
54679;SDS011;40578;53.178;5.846;2024-03-23T12:13:12;6.82;;;2.30;;
54679;SDS011;40578;53.178;5.846;2024-03-23T12:15:40;11.13;;;2.70;;
54679;SDS011;40578;53.178;5.846;2024-03-23T12:18:09;13.13;;;2.90;;
54679;SDS011;40578;53.178;5.846;2024-03-23T12:20:35;12.45;;;2.83;;
54679;SDS011;40578;53.178;5.846;2024-03-23T12:23:09;11.65;;;2.67;;
54679;SDS011;40578;53.178;5.846;2024-03-23T12:25:36;10.35;;;2.15;;
54679;SDS011;40578;53.178;5.846;2024-03-23T12:28:03;14.57;;;2.75;;
54679;SDS011;40578;53.178;5.846;2024-03-23T12:30:31;12.20;;;3.33;;
54679;SDS011;40578;53.178;5.846;2024-03-23T12:33:04;15.18;;;3.65;;
54679;SDS011;40578;53.178;5.846;2024-03-23T12:35:30;9.68;;;2.85;;
54679;SDS011;40578;53.178;5.846;2024-03-23T12:37:56;10.67;;;2.60;;
54679;SDS011;40578;53.178;5.846;2024-03-23T12:40:22;10.67;;;2.60;;
54679;SDS011;40578;53.178;5.846;2024-03-23T12:42:49;7.43;;;2.42;;
54679;SDS011;40578;53.178;5.846;2024-03-23T12:45:14;5.83;;;1.50;;
54679;SDS011;40578;53.178;5.846;2024-03-23T12:47:40;9.10;;;2.77;;
54679;SDS011;40578;53.178;5.846;2024-03-23T12:50:05;7.10;;;2.20;;
54679;SDS011;40578;53.178;5.846;2024-03-23T12:52:32;8.65;;;2.78;;
54679;SDS011;40578;53.178;5.846;2024-03-23T12:54:58;9.27;;;2.17;;
54679;SDS011;40578;53.178;5.846;2024-03-23T12:57:24;9.73;;;2.50;;
54679;SDS011;40578;53.178;5.846;2024-03-23T12:59:53;8.85;;;2.10;;
54679;SDS011;40578;53.178;5.846;2024-03-23T13:02:22;6.88;;;1.90;;
54679;SDS011;40578;53.178;5.846;2024-03-23T13:04:54;12.80;;;2.63;;
54679;SDS011;40578;53.178;5.846;2024-03-23T13:07:20;10.23;;;2.28;;
54679;SDS011;40578;53.178;5.846;2024-03-23T13:09:47;7.10;;;2.28;;
54679;SDS011;40578;53.178;5.846;2024-03-23T13:12:15;5.32;;;1.65;;
54679;SDS011;40578;53.178;5.846;2024-03-23T13:14:40;5.00;;;1.10;;
54679;SDS011;40578;53.178;5.846;2024-03-23T13:17:07;7.57;;;1.75;;
54679;SDS011;40578;53.178;5.846;2024-03-23T13:19:33;6.18;;;1.80;;
54679;SDS011;40578;53.178;5.846;2024-03-23T13:22:02;9.57;;;1.83;;
54679;SDS011;40578;53.178;5.846;2024-03-23T13:24:29;10.32;;;2.40;;
54679;SDS011;40578;53.178;5.846;2024-03-23T13:26:55;9.00;;;1.98;;
54679;SDS011;40578;53.178;5.846;2024-03-23T13:29:21;10.65;;;2.20;;
54679;SDS011;40578;53.178;5.846;2024-03-23T13:31:48;8.10;;;2.28;;
54679;SDS011;40578;53.178;5.846;2024-03-23T13:36:40;7.25;;;1.77;;
54679;SDS011;40578;53.178;5.846;2024-03-23T13:39:06;10.45;;;2.05;;
54679;SDS011;40578;53.178;5.846;2024-03-23T13:41:37;8.80;;;2.58;;
54679;SDS011;40578;53.178;5.846;2024-03-23T13:44:10;6.93;;;1.67;;
54679;SDS011;40578;53.178;5.846;2024-03-23T13:46:37;15.45;;;2.20;;
54679;SDS011;40578;53.178;5.846;2024-03-23T13:49:20;6.43;;;1.65;;
54679;SDS011;40578;53.178;5.846;2024-03-23T13:51:53;8.88;;;2.20;;
54679;SDS011;40578;53.178;5.846;2024-03-23T13:54:20;8.05;;;2.17;;
54679;SDS011;40578;53.178;5.846;2024-03-23T13:56:47;7.80;;;2.00;;
54679;SDS011;40578;53.178;5.846;2024-03-23T13:59:14;10.68;;;2.83;;
54679;SDS011;40578;53.178;5.846;2024-03-23T14:01:39;14.40;;;2.90;;
54679;SDS011;40578;53.178;5.846;2024-03-23T14:04:05;14.77;;;2.85;;
54679;SDS011;40578;53.178;5.846;2024-03-23T14:06:31;11.60;;;2.63;;
54679;SDS011;40578;53.178;5.846;2024-03-23T14:08:57;12.93;;;2.50;;
54679;SDS011;40578;53.178;5.846;2024-03-23T14:11:22;10.63;;;2.47;;
54679;SDS011;40578;53.178;5.846;2024-03-23T14:13:48;11.50;;;2.43;;
54679;SDS011;40578;53.178;5.846;2024-03-23T14:16:13;7.83;;;2.03;;
54679;SDS011;40578;53.178;5.846;2024-03-23T14:18:39;10.57;;;2.30;;
54679;SDS011;40578;53.178;5.846;2024-03-23T14:21:05;15.93;;;2.40;;
54679;SDS011;40578;53.178;5.846;2024-03-23T14:23:30;11.97;;;3.27;;
54679;SDS011;40578;53.178;5.846;2024-03-23T14:25:59;15.60;;;3.25;;
54679;SDS011;40578;53.178;5.846;2024-03-23T14:28:25;11.53;;;2.40;;
54679;SDS011;40578;53.178;5.846;2024-03-23T14:30:51;11.17;;;1.97;;
54679;SDS011;40578;53.178;5.846;2024-03-23T14:33:17;12.60;;;2.60;;
54679;SDS011;40578;53.178;5.846;2024-03-23T14:35:51;8.57;;;2.08;;
54679;SDS011;40578;53.178;5.846;2024-03-23T14:38:22;12.60;;;2.80;;
54679;SDS011;40578;53.178;5.846;2024-03-23T14:40:48;11.93;;;2.47;;
54679;SDS011;40578;53.178;5.846;2024-03-23T14:43:14;9.27;;;2.13;;
54679;SDS011;40578;53.178;5.846;2024-03-23T14:46:05;12.70;;;2.75;;
54679;SDS011;40578;53.178;5.846;2024-03-23T14:48:34;11.02;;;2.30;;
54679;SDS011;40578;53.178;5.846;2024-03-23T14:51:00;9.10;;;2.28;;
54679;SDS011;40578;53.178;5.846;2024-03-23T14:53:29;10.57;;;2.35;;
54679;SDS011;40578;53.178;5.846;2024-03-23T14:55:56;12.85;;;2.28;;
54679;SDS011;40578;53.178;5.846;2024-03-23T14:58:22;11.57;;;2.90;;
54679;SDS011;40578;53.178;5.846;2024-03-23T15:00:48;13.00;;;2.83;;
54679;SDS011;40578;53.178;5.846;2024-03-23T15:03:14;12.60;;;3.05;;
54679;SDS011;40578;53.178;5.846;2024-03-23T15:05:40;12.00;;;2.42;;
54679;SDS011;40578;53.178;5.846;2024-03-23T15:08:06;15.17;;;2.87;;
54679;SDS011;40578;53.178;5.846;2024-03-23T15:10:35;11.97;;;2.60;;
54679;SDS011;40578;53.178;5.846;2024-03-23T15:13:00;10.00;;;2.65;;
54679;SDS011;40578;53.178;5.846;2024-03-23T15:15:26;10.97;;;2.50;;
54679;SDS011;40578;53.178;5.846;2024-03-23T15:17:51;7.83;;;1.73;;
54679;SDS011;40578;53.178;5.846;2024-03-23T15:20:17;12.47;;;3.27;;
54679;SDS011;40578;53.178;5.846;2024-03-23T15:22:43;10.83;;;2.43;;
54679;SDS011;40578;53.178;5.846;2024-03-23T15:25:08;11.97;;;2.57;;
54679;SDS011;40578;53.178;5.846;2024-03-23T15:27:34;12.98;;;2.88;;
54679;SDS011;40578;53.178;5.846;2024-03-23T15:30:00;9.10;;;1.87;;
54679;SDS011;40578;53.178;5.846;2024-03-23T15:32:26;11.57;;;2.53;;
54679;SDS011;40578;53.178;5.846;2024-03-23T15:34:51;13.37;;;2.40;;
54679;SDS011;40578;53.178;5.846;2024-03-23T15:37:17;10.57;;;2.40;;
54679;SDS011;40578;53.178;5.846;2024-03-23T15:39:43;11.47;;;2.50;;
54679;SDS011;40578;53.178;5.846;2024-03-23T15:42:08;10.57;;;2.57;;
54679;SDS011;40578;53.178;5.846;2024-03-23T15:44:35;9.93;;;2.17;;
54679;SDS011;40578;53.178;5.846;2024-03-23T15:47:00;9.03;;;2.00;;
54679;SDS011;40578;53.178;5.846;2024-03-23T15:49:26;10.00;;;1.80;;
54679;SDS011;40578;53.178;5.846;2024-03-23T15:51:52;11.87;;;2.13;;
54679;SDS011;40578;53.178;5.846;2024-03-23T15:54:18;11.05;;;2.38;;
54679;SDS011;40578;53.178;5.846;2024-03-23T15:56:44;15.63;;;2.03;;